Terminal Aerodrome Forecast
Issued by NWS Spokane, WA

Current Version | Previous Version | Text Only | Print | Product List | Glossary On
Versions: 1 2 3 4 5 6 7 8 9 10 11 12
000
FTUS46 KOTX 221124
TAFEAT
TAF
KEAT 221124Z 2212/2312 33009KT P6SM SCT100 BKN150
     FM221900 14007KT P6SM SCT080 SCT150
     FM230300 32009KT P6SM SKC=

USA.gov is the U.S. government's official web portal to all federal, state and local government web resources and services.